Time;durP1;ratioP1;P1;durP2;ratioP2;P2;SDS_P1;SDS_P2;PMS_P1;PMS_P2;Temp;Humidity;BMP_temperature;BMP_pressure;BME280_temperature;BME280_humidity;BME280_pressure;Samples;Min_cycle;Max_cycle;Signal;HPM_P1;HPM_P2
2024/04/08 00:00:52;;;;;;;;;;;;;;;10.94;68.79;93625.56;5095431;28;19923;-73
2024/04/08 00:03:17;;;;;;;;;;;;;;;10.84;69.80;93631.13;5092303;28;20001;-73
2024/04/08 00:05:43;;;;;;;;;;;;;;;10.88;68.26;93624.56;5097747;28;20011;-73
2024/04/08 00:08:08;;;;;;;;;;;;;;;10.86;69.16;93623.97;5090179;28;19920;-73
2024/04/08 00:10:36;;;;;;;;;;;;;;;10.67;70.16;93623.03;5093079;28;20751;-72
2024/04/08 00:13:02;;;;;;;;;;;;;;;10.71;70.80;93628.53;5100875;28;19912;-73
2024/04/08 00:15:27;;;;;;;;;;;;;;;10.71;71.00;93636.25;5097804;28;19972;-73
2024/04/08 00:17:52;;;;;;;;;;;;;;;10.72;70.16;93622.41;5094508;28;19912;-73
2024/04/08 00:20:19;;;;;;;;;;;;;;;10.67;70.66;93625.59;5090724;28;19916;-73
2024/04/08 00:22:46;;;;;;;;;;;;;;;10.62;71.52;93631.34;5098649;28;20816;-72
2024/04/08 00:25:12;;;;;;;;;;;;;;;10.54;70.80;93627.19;5109307;28;19926;-72
2024/04/08 00:27:37;;;;;;;;;;;;;;;10.54;71.36;93616.91;5104297;28;19916;-72
2024/04/08 00:30:04;;;;;;;;;;;;;;;10.47;71.17;93620.47;5091524;28;19923;-73
2024/04/08 00:32:29;;;;;;;;;;;;;;;10.40;71.13;93623.81;5092510;28;19962;-73
2024/04/08 00:34:55;;;;;;;;;;;;;;;10.28;71.14;93623.59;5095744;28;19943;-73
2024/04/08 00:37:20;;;;;;;;;;;;;;;10.23;71.33;93631.09;5092005;28;19916;-73
2024/04/08 00:39:45;;;;;;;;;;;;;;;10.08;72.67;93627.91;5091133;28;19916;-73
2024/04/08 00:42:11;;;;;;;;;;;;;;;9.96;72.46;93633.63;5090463;28;19954;-73
2024/04/08 00:44:36;;;;;;;;;;;;;;;10.00;71.98;93626.34;5090284;28;20571;-73
2024/04/08 00:47:01;;;;;;;;;;;;;;;9.93;72.26;93622.97;5108522;28;19957;-73
2024/04/08 00:49:28;;;;;;;;;;;;;;;9.84;72.04;93637.75;5103552;28;19961;-72
2024/04/08 00:51:54;;;;;;;;;;;;;;;9.70;73.48;93621.53;5089973;28;20022;-73
2024/04/08 00:54:20;;;;;;;;;;;;;;;9.66;74.06;93618.56;5092319;28;19916;-73
2024/04/08 00:56:45;;;;;;;;;;;;;;;9.73;74.05;93621.16;5090683;28;19912;-72
2024/04/08 00:59:12;;;;;;;;;;;;;;;9.30;75.89;93630.69;5092179;28;20038;-73
2024/04/08 01:01:38;;;;;;;;;;;;;;;9.38;76.40;93622.03;5090376;28;19922;-72
2024/04/08 01:04:04;;;;;;;;;;;;;;;9.45;75.21;93622.84;5092267;28;19912;-72
2024/04/08 01:06:29;;;;;;;;;;;;;;;9.38;74.99;93621.22;5089453;28;20288;-73
2024/04/08 01:08:55;;;;;;;;;;;;;;;9.44;74.54;93613.56;5091809;28;19920;-72
2024/04/08 01:11:20;;;;;;;;;;;;;;;9.37;74.81;93607.63;5089904;28;19912;-73
2024/04/08 01:13:45;;;;;;;;;;;;;;;9.35;75.15;93607.81;5089790;28;19912;-72
2024/04/08 01:16:11;;;;;;;;;;;;;;;9.26;75.87;93626.91;5090019;28;19929;-73
2024/04/08 01:18:37;;;;;;;;;;;;;;;9.17;75.74;93623.72;5091267;28;19920;-73
2024/04/08 01:21:02;;;;;;;;;;;;;;;9.29;75.41;93618.03;5107825;28;20010;-72
2024/04/08 01:23:28;;;;;;;;;;;;;;;9.29;75.60;93618.84;5098370;28;19970;-73
2024/04/08 01:25:53;;;;;;;;;;;;;;;9.19;76.02;93624.34;5105672;28;19959;-73
2024/04/08 01:28:19;;;;;;;;;;;;;;;9.19;75.51;93614.09;5102916;28;19919;-72
2024/04/08 01:30:44;;;;;;;;;;;;;;;9.14;76.51;93629.25;5089498;28;19919;-73
2024/04/08 01:33:09;;;;;;;;;;;;;;;9.06;76.13;93634.50;5089793;28;19912;-74
2024/04/08 01:35:35;;;;;;;;;;;;;;;9.02;76.56;93621.28;5093512;28;19993;-74
2024/04/08 01:38:00;;;;;;;;;;;;;;;9.07;76.99;93625.84;5089868;28;20369;-73
2024/04/08 01:40:25;;;;;;;;;;;;;;;9.07;76.90;93618.94;5089805;28;20014;-73
2024/04/08 01:42:51;;;;;;;;;;;;;;;9.05;77.50;93623.47;5089401;28;19920;-73
2024/04/08 01:45:16;;;;;;;;;;;;;;;8.96;77.58;93624.59;5089157;28;19916;-73
2024/04/08 01:47:41;;;;;;;;;;;;;;;8.93;77.57;93617.28;5090191;28;19916;-73
2024/04/08 01:50:07;;;;;;;;;;;;;;;8.95;77.03;93615.34;5071449;28;19942;-73
2024/04/08 01:52:32;;;;;;;;;;;;;;;8.86;77.77;93614.72;5089050;28;20273;-73
2024/04/08 01:54:57;;;;;;;;;;;;;;;8.76;77.86;93620.19;5092464;28;19920;-73
2024/04/08 01:57:23;;;;;;;;;;;;;;;8.71;78.68;93619.16;5099092;28;19916;-73
2024/04/08 01:59:48;;;;;;;;;;;;;;;8.53;79.60;93610.94;5093141;28;19999;-74
2024/04/08 02:02:13;;;;;;;;;;;;;;;8.54;80.02;93611.75;5094192;28;19920;-73
2024/04/08 02:04:39;;;;;;;;;;;;;;;8.51;80.76;93617.19;5091922;28;19965;-73
2024/04/08 02:07:04;;;;;;;;;;;;;;;8.41;80.17;93617.53;5091270;28;19961;-73
2024/04/08 02:09:29;;;;;;;;;;;;;;;8.41;80.32;93615.78;5090692;28;19916;-73
2024/04/08 02:11:55;;;;;;;;;;;;;;;8.34;80.75;93614.91;5093649;28;19928;-73
2024/04/08 02:14:20;;;;;;;;;;;;;;;8.34;80.80;93609.03;5096035;28;20300;-73
2024/04/08 02:16:45;;;;;;;;;;;;;;;8.32;81.42;93611.75;5090671;28;19916;-73
2024/04/08 02:19:10;;;;;;;;;;;;;;;8.29;81.88;93609.59;5094655;28;19915;-73
2024/04/08 02:21:36;;;;;;;;;;;;;;;8.26;81.63;93604.81;5098258;28;19920;-73
2024/04/08 02:24:02;;;;;;;;;;;;;;;8.31;81.65;93609.38;5088671;28;19912;-73
2024/04/08 02:26:28;;;;;;;;;;;;;;;8.24;81.80;93620.34;5088679;28;20006;-73
2024/04/08 02:28:53;;;;;;;;;;;;;;;8.20;82.14;93618.38;5092442;28;19998;-73
2024/04/08 02:31:19;;;;;;;;;;;;;;;8.15;82.27;93624.81;5087886;28;19978;-73
2024/04/08 02:33:45;;;;;;;;;;;;;;;8.13;82.37;93620.84;5092915;28;19962;-73
2024/04/08 02:36:11;;;;;;;;;;;;;;;8.10;82.58;93626.34;5090675;28;19919;-73
2024/04/08 02:38:36;;;;;;;;;;;;;;;8.07;82.21;93627.50;5088515;28;19919;-73
2024/04/08 02:41:01;;;;;;;;;;;;;;;8.05;82.16;93634.56;5089920;28;19916;-73
2024/04/08 02:43:26;;;;;;;;;;;;;;;8.05;82.84;93618.44;5090051;28;19923;-73
2024/04/08 02:45:52;;;;;;;;;;;;;;;8.02;82.91;93629.81;5088200;28;19912;-73
2024/04/08 02:48:19;;;;;;;;;;;;;;;7.99;82.76;93625.06;5095725;28;19911;-73
2024/04/08 02:50:47;;;;;;;;;;;;;;;7.97;82.88;93625.25;5106470;28;19922;-73
2024/04/08 02:53:12;;;;;;;;;;;;;;;7.93;83.84;93626.59;5088529;28;20411;-73
2024/04/08 02:55:38;;;;;;;;;;;;;;;7.91;83.99;93635.44;5087896;28;19916;-73
2024/04/08 02:58:03;;;;;;;;;;;;;;;7.83;84.94;93623.56;5092192;28;19966;-73
2024/04/08 03:00:29;;;;;;;;;;;;;;;7.84;84.77;93630.25;5087894;28;19916;-73
2024/04/08 03:02:54;;;;;;;;;;;;;;;7.81;84.59;93631.41;5094493;28;19912;-73
2024/04/08 03:05:20;;;;;;;;;;;;;;;7.79;84.69;93632.56;5089526;28;19916;-73
2024/04/08 03:07:45;;;;;;;;;;;;;;;7.83;84.43;93629.44;5087874;28;19923;-73
2024/04/08 03:10:10;;;;;;;;;;;;;;;7.80;83.63;93627.25;5090821;28;19916;-73
2024/04/08 03:12:36;;;;;;;;;;;;;;;7.77;83.41;93631.94;5106910;28;20448;-73
2024/04/08 03:15:02;;;;;;;;;;;;;;;7.72;83.06;93629.91;5103745;28;20448;-73
2024/04/08 03:17:27;;;;;;;;;;;;;;;7.72;83.62;93630.72;5092099;28;19912;-73
2024/04/08 03:19:56;;;;;;;;;;;;;;;7.65;83.50;93632.44;5092187;28;19958;-73
2024/04/08 03:22:22;;;;;;;;;;;;;;;7.56;83.63;93636.06;5094681;28;19974;-73
2024/04/08 03:24:47;;;;;;;;;;;;;;;7.48;84.66;93642.06;5091807;28;19916;-73
2024/04/08 03:27:12;;;;;;;;;;;;;;;7.47;84.63;93630.25;5091720;28;19920;-72
2024/04/08 03:29:38;;;;;;;;;;;;;;;7.40;85.07;93645.50;5101767;28;20030;-72
2024/04/08 03:32:03;;;;;;;;;;;;;;;7.40;84.78;93642.19;5103443;28;19923;-72
2024/04/08 03:34:31;;;;;;;;;;;;;;;7.29;85.40;93639.09;5093794;28;20372;-72
2024/04/08 03:36:57;;;;;;;;;;;;;;;7.25;85.59;93637.88;5091223;28;19920;-72
2024/04/08 03:39:22;;;;;;;;;;;;;;;7.21;86.03;93644.28;5091903;28;19916;-72
2024/04/08 03:41:49;;;;;;;;;;;;;;;7.20;86.09;93643.53;5091448;28;20029;-72
2024/04/08 03:44:15;;;;;;;;;;;;;;;7.20;86.50;93647.81;5090440;28;20423;-72
2024/04/08 03:46:40;;;;;;;;;;;;;;;7.17;86.98;93648.97;5090745;28;20041;-72
2024/04/08 03:49:05;;;;;;;;;;;;;;;7.13;87.26;93655.41;5095100;28;19973;-72
2024/04/08 03:51:31;;;;;;;;;;;;;;;7.16;86.94;93655.06;5090848;28;19912;-72
2024/04/08 03:53:56;;;;;;;;;;;;;;;7.18;86.77;93660.00;5091243;28;19965;-72
2024/04/08 03:56:21;;;;;;;;;;;;;;;7.14;86.76;93651.09;5094289;28;20002;-72
2024/04/08 03:58:46;;;;;;;;;;;;;;;7.16;86.67;93649.16;5093738;28;20416;-72
2024/04/08 04:01:12;;;;;;;;;;;;;;;7.13;88.25;93649.50;5090875;28;19916;-72
2024/04/08 04:03:37;;;;;;;;;;;;;;;7.10;88.31;93650.66;5091950;28;19919;-72
2024/04/08 04:06:03;;;;;;;;;;;;;;;7.16;88.10;93651.69;5091356;28;19945;-72
2024/04/08 04:08:31;;;;;;;;;;;;;;;7.17;88.67;93651.53;5097925;28;20277;-72
2024/04/08 04:10:57;;;;;;;;;;;;;;;7.20;88.37;93653.75;5090485;28;19924;-72
2024/04/08 04:13:22;;;;;;;;;;;;;;;7.14;87.98;93658.75;5090435;28;19923;-72
2024/04/08 04:15:47;;;;;;;;;;;;;;;7.14;87.95;93659.56;5090340;28;19915;-72
2024/04/08 04:18:13;;;;;;;;;;;;;;;7.14;87.70;93659.56;5108602;28;20373;-72
2024/04/08 04:20:40;;;;;;;;;;;;;;;7.19;87.86;93654.69;5106697;28;19980;-72
2024/04/08 04:23:05;;;;;;;;;;;;;;;7.20;86.80;93652.94;5092442;28;19923;-72
2024/04/08 04:25:31;;;;;;;;;;;;;;;7.16;86.67;93657.63;5090440;28;19916;-72
2024/04/08 04:27:57;;;;;;;;;;;;;;;7.10;86.94;93663.44;5101280;28;19920;-72
2024/04/08 04:30:22;;;;;;;;;;;;;;;7.06;87.66;93660.44;5098575;28;20010;-72
2024/04/08 04:32:48;;;;;;;;;;;;;;;7.16;87.06;93661.91;5094802;28;20285;-72
2024/04/08 04:35:13;;;;;;;;;;;;;;;7.16;87.15;93664.47;5094084;28;20413;-72
2024/04/08 04:37:38;;;;;;;;;;;;;;;7.13;87.67;93675.06;5092434;28;19919;-72
2024/04/08 04:40:04;;;;;;;;;;;;;;;7.13;87.91;93668.16;5096255;28;19916;-72
2024/04/08 04:42:29;;;;;;;;;;;;;;;7.16;87.73;93664.47;5091724;28;19920;-73
2024/04/08 04:44:55;;;;;;;;;;;;;;;7.18;87.13;93660.00;5095104;28;20467;-73
2024/04/08 04:47:20;;;;;;;;;;;;;;;7.20;87.06;93669.06;5095770;28;19980;-73
2024/04/08 04:49:45;;;;;;;;;;;;;;;7.19;87.26;93669.25;5096063;28;19919;-73
2024/04/08 04:52:11;;;;;;;;;;;;;;;7.19;87.18;93667.47;5097935;28;19947;-73
2024/04/08 04:54:37;;;;;;;;;;;;;;;7.17;88.54;93679.63;5095845;28;20002;-73
2024/04/08 04:57:02;;;;;;;;;;;;;;;7.20;88.22;93681.03;5098163;28;19969;-73
2024/04/08 04:59:27;;;;;;;;;;;;;;;7.27;87.82;93679.34;5100601;28;20432;-73
2024/04/08 05:01:52;;;;;;;;;;;;;;;7.36;87.75;93682.59;5097661;28;19919;-73
2024/04/08 05:04:18;;;;;;;;;;;;;;;7.46;88.69;93682.34;5097953;28;20264;-73
2024/04/08 05:06:43;;;;;;;;;;;;;;;7.57;89.37;93686.22;5097255;28;19966;-73
2024/04/08 05:09:08;;;;;;;;;;;;;;;7.76;87.95;93684.84;5099456;28;19963;-73
2024/04/08 05:11:34;;;;;;;;;;;;;;;7.88;88.39;93680.84;5098486;28;19926;-73
2024/04/08 05:13:59;;;;;;;;;;;;;;;8.09;86.68;93686.97;5095432;28;19943;-73
2024/04/08 05:16:24;;;;;;;;;;;;;;;8.19;87.63;93684.09;5098932;28;20278;-73
2024/04/08 05:18:49;;;;;;;;;;;;;;;8.37;85.70;93678.53;5101043;28;20312;-73
2024/04/08 05:21:15;;;;;;;;;;;;;;;8.50;88.11;93683.00;5098818;28;20286;-73
2024/04/08 05:23:43;;;;;;;;;;;;;;;8.71;84.99;93675.50;5101440;28;19912;-73
2024/04/08 05:26:08;;;;;;;;;;;;;;;8.89;85.36;93682.72;5098481;28;20006;-73
2024/04/08 05:28:33;;;;;;;;;;;;;;;9.03;85.19;93681.81;5100951;28;20005;-73
2024/04/08 05:30:59;;;;;;;;;;;;;;;9.23;84.21;93676.00;5094995;28;20305;-73
2024/04/08 05:33:24;;;;;;;;;;;;;;;9.32;84.00;93677.44;5096385;28;20296;-73
2024/04/08 05:35:50;;;;;;;;;;;;;;;9.55;80.78;93678.91;5094051;28;19912;-73
2024/04/08 05:38:15;;;;;;;;;;;;;;;9.77;82.09;93678.81;5095184;28;20014;-73
2024/04/08 05:40:40;;;;;;;;;;;;;;;9.96;80.34;93676.47;5092991;28;19927;-73
2024/04/08 05:43:06;;;;;;;;;;;;;;;10.21;79.48;93681.84;5093732;28;19947;-73
2024/04/08 05:45:32;;;;;;;;;;;;;;;10.40;80.41;93685.44;5087577;28;19915;-73
2024/04/08 05:47:57;;;;;;;;;;;;;;;10.48;78.40;93686.25;5096490;28;20056;-73
2024/04/08 05:50:23;;;;;;;;;;;;;;;10.74;76.09;93685.47;5097388;28;19955;-73
2024/04/08 05:52:49;;;;;;;;;;;;;;;10.99;76.39;93684.06;5094743;28;19959;-73
2024/04/08 05:55:14;;;;;;;;;;;;;;;11.16;76.00;93681.88;5095286;28;19916;-73
2024/04/08 05:57:40;;;;;;;;;;;;;;;11.41;75.38;93681.19;5091342;28;19961;-73
2024/04/08 06:00:06;;;;;;;;;;;;;;;11.63;73.64;93679.94;5096403;28;19923;-73
2024/04/08 06:02:31;;;;;;;;;;;;;;;11.94;72.81;93689.72;5091797;28;20243;-73
2024/04/08 06:04:57;;;;;;;;;;;;;;;12.05;72.06;93681.38;5094519;28;19962;-73
2024/04/08 06:07:23;;;;;;;;;;;;;;;12.39;70.46;93684.53;5099825;28;19912;-73
2024/04/08 06:09:48;;;;;;;;;;;;;;;12.59;69.34;93685.38;5097404;28;20384;-73
2024/04/08 06:12:13;;;;;;;;;;;;;;;12.75;68.71;93687.44;5097723;28;20361;-73
2024/04/08 06:14:39;;;;;;;;;;;;;;;12.89;68.72;93689.88;5099853;28;20010;-73
2024/04/08 06:17:04;;;;;;;;;;;;;;;12.78;69.43;93684.41;5093540;28;20338;-73
2024/04/08 06:19:31;;;;;;;;;;;;;;;13.11;68.67;93690.28;5096168;28;19916;-73
2024/04/08 06:21:56;;;;;;;;;;;;;;;13.41;66.95;93691.38;5098524;28;19916;-73
2024/04/08 06:24:21;;;;;;;;;;;;;;;13.46;67.02;93687.19;5095209;28;19968;-73
2024/04/08 06:26:46;;;;;;;;;;;;;;;13.58;67.63;93686.47;5095534;28;19912;-73
2024/04/08 06:29:12;;;;;;;;;;;;;;;14.06;66.45;93690.03;5098038;28;19912;-73
2024/04/08 06:31:37;;;;;;;;;;;;;;;14.46;64.86;93682.75;5093955;28;19923;-73
2024/04/08 06:34:03;;;;;;;;;;;;;;;14.82;63.55;93693.97;5092427;28;20345;-73
2024/04/08 06:36:31;;;;;;;;;;;;;;;15.07;61.26;93688.56;5091076;28;19977;-73
2024/04/08 06:38:56;;;;;;;;;;;;;;;15.31;59.80;93692.94;5089584;28;20316;-73
2024/04/08 06:41:22;;;;;;;;;;;;;;;15.66;59.82;93693.88;5089868;28;19927;-73
2024/04/08 06:43:47;;;;;;;;;;;;;;;15.00;59.91;93697.47;5088881;28;19915;-73
2024/04/08 06:46:13;;;;;;;;;;;;;;;15.18;60.06;93688.81;5089679;28;20351;-73
2024/04/08 06:48:38;;;;;;;;;;;;;;;15.61;60.69;93692.00;5089110;28;19920;-73
2024/04/08 06:51:04;;;;;;;;;;;;;;;15.91;58.11;93685.81;5089225;28;19960;-73
2024/04/08 06:53:29;;;;;;;;;;;;;;;15.97;59.20;93687.50;5088169;28;19920;-73
2024/04/08 06:55:54;;;;;;;;;;;;;;;16.21;57.02;93690.03;5096712;28;19965;-73
2024/04/08 06:58:20;;;;;;;;;;;;;;;16.66;57.60;93685.06;5095713;28;19919;-73
2024/04/08 07:00:48;;;;;;;;;;;;;;;17.15;56.44;93696.66;5094478;28;19919;-73
2024/04/08 07:03:14;;;;;;;;;;;;;;;17.50;55.37;93685.97;5099829;28;20445;-73
2024/04/08 07:05:43;;;;;;;;;;;;;;;17.88;54.67;93674.97;5093873;28;19930;-73
2024/04/08 07:08:09;;;;;;;;;;;;;;;18.19;52.66;93685.69;5090733;28;19935;-73
2024/04/08 07:10:35;;;;;;;;;;;;;;;18.07;51.27;93688.47;5092385;28;20288;-73
2024/04/08 07:13:00;;;;;;;;;;;;;;;18.13;53.75;93681.50;5091467;28;19926;-73
2024/04/08 07:15:25;;;;;;;;;;;;;;;17.86;53.17;93677.81;5090296;28;19919;-73
2024/04/08 07:17:50;;;;;;;;;;;;;;;17.40;52.74;93680.66;5093623;28;20293;-73
2024/04/08 07:20:16;;;;;;;;;;;;;;;17.45;56.04;93669.56;5093446;28;19962;-73
2024/04/08 07:22:41;;;;;;;;;;;;;;;17.37;52.87;93678.53;5091543;28;20361;-73
2024/04/08 07:25:06;;;;;;;;;;;;;;;17.22;53.91;93679.13;5093896;28;20382;-73
2024/04/08 07:27:32;;;;;;;;;;;;;;;17.54;54.04;93683.69;5092833;28;19985;-73
2024/04/08 07:29:57;;;;;;;;;;;;;;;17.88;52.86;93683.53;5094034;28;20026;-73
2024/04/08 07:32:23;;;;;;;;;;;;;;;17.68;53.36;93672.94;5093655;28;20002;-73
2024/04/08 07:34:48;;;;;;;;;;;;;;;17.15;52.59;93683.69;5092105;28;19920;-73
2024/04/08 07:37:13;;;;;;;;;;;;;;;17.51;52.32;93684.19;5090926;28;19916;-73
2024/04/08 07:39:39;;;;;;;;;;;;;;;16.91;54.04;93682.06;5080708;28;20669;-73
2024/04/08 07:42:04;;;;;;;;;;;;;;;17.29;53.42;93677.16;5095708;28;19938;-73
2024/04/08 07:44:30;;;;;;;;;;;;;;;17.79;53.49;93681.63;5094939;28;19916;-73
2024/04/08 07:46:55;;;;;;;;;;;;;;;17.96;51.78;93684.16;5093773;28;19916;-73
2024/04/08 07:49:20;;;;;;;;;;;;;;;17.86;51.72;93690.00;5098655;28;19935;-71
2024/04/08 07:51:46;;;;;;;;;;;;;;;18.05;51.88;93685.28;5098403;28;19961;-73
2024/04/08 07:54:11;;;;;;;;;;;;;;;18.35;49.90;93681.44;5089283;28;20293;-73
2024/04/08 07:56:37;;;;;;;;;;;;;;;17.49;50.73;93684.41;5097185;28;20249;-73
2024/04/08 07:59:02;;;;;;;;;;;;;;;18.11;51.46;93684.34;5098903;28;19954;-73
2024/04/08 08:01:27;;;;;;;;;;;;;;;17.73;51.22;93686.75;5097373;28;19916;-73
2024/04/08 08:03:52;;;;;;;;;;;;;;;18.02;51.36;93683.94;5097100;28;19966;-73
2024/04/08 08:06:18;;;;;;;;;;;;;;;18.31;49.89;93682.97;5096139;28;19942;-73
2024/04/08 08:08:43;;;;;;;;;;;;;;;18.33;49.55;93675.69;5099345;28;20425;-73
2024/04/08 08:11:10;;;;;;;;;;;;;;;18.82;49.36;93680.00;5096106;28;19920;-74
2024/04/08 08:13:35;;;;;;;;;;;;;;;18.59;49.36;93673.31;5095559;28;19915;-73
2024/04/08 08:16:01;;;;;;;;;;;;;;;18.66;50.11;93673.88;5099376;28;19920;-73
2024/04/08 08:18:26;;;;;;;;;;;;;;;19.09;49.46;93675.78;5098414;28;20048;-73
2024/04/08 08:20:52;;;;;;;;;;;;;;;19.44;48.08;93666.59;5098218;28;19920;-71
2024/04/08 08:23:17;;;;;;;;;;;;;;;19.68;46.04;93673.19;5098656;28;19916;-73
2024/04/08 08:25:42;;;;;;;;;;;;;;;20.09;44.74;93664.75;5098421;28;19916;-73
2024/04/08 08:28:08;;;;;;;;;;;;;;;20.56;46.12;93666.34;5094597;28;19916;-73
2024/04/08 08:30:36;;;;;;;;;;;;;;;20.55;42.55;93662.19;5098135;28;20349;-71
2024/04/08 08:33:02;;;;;;;;;;;;;;;20.01;43.65;93663.44;5093216;28;20266;-71
2024/04/08 08:35:27;;;;;;;;;;;;;;;20.43;44.84;93659.06;5096792;28;19941;-71
2024/04/08 08:37:52;;;;;;;;;;;;;;;20.80;42.29;93658.03;5093212;28;19952;-72
2024/04/08 08:40:20;;;;;;;;;;;;;;;20.69;41.38;93659.84;5093340;28;19916;-72
2024/04/08 08:42:49;;;;;;;;;;;;;;;20.45;42.31;93659.56;5093360;28;20011;-71
2024/04/08 08:45:15;;;;;;;;;;;;;;;20.74;41.58;93653.81;5094526;28;20101;-71
2024/04/08 08:47:40;;;;;;;;;;;;;;;21.05;41.92;93653.03;5095224;28;20007;-71
2024/04/08 08:50:05;;;;;;;;;;;;;;;21.27;41.36;93657.16;5100136;28;19963;-72
2024/04/08 08:52:31;;;;;;;;;;;;;;;20.93;41.17;93659.31;5097211;28;19916;-71
2024/04/08 08:54:56;;;;;;;;;;;;;;;20.47;40.80;93652.28;5100906;28;19941;-71
2024/04/08 08:57:24;;;;;;;;;;;;;;;20.49;41.37;93654.59;5100446;28;19920;-71
2024/04/08 08:59:50;;;;;;;;;;;;;;;20.02;40.19;93657.16;5095629;28;19917;-71
2024/04/08 09:02:16;;;;;;;;;;;;;;;19.99;41.57;93652.44;5091174;28;20468;-71
2024/04/08 09:04:41;;;;;;;;;;;;;;;19.85;41.44;93654.72;5100310;28;19927;-71
2024/04/08 09:07:07;;;;;;;;;;;;;;;19.66;40.87;93652.59;5097889;28;19916;-71
2024/04/08 09:09:32;;;;;;;;;;;;;;;19.12;41.73;93653.66;5102387;28;19915;-71
2024/04/08 09:11:58;;;;;;;;;;;;;;;19.16;42.55;93650.28;5094221;28;20353;-71
2024/04/08 09:14:23;;;;;;;;;;;;;;;19.59;43.12;93647.63;5089587;28;20431;-71
2024/04/08 09:16:49;;;;;;;;;;;;;;;20.20;42.33;93636.84;5091282;28;19945;-71
2024/04/08 09:19:15;;;;;;;;;;;;;;;19.96;41.42;93639.91;5091247;28;19916;-71
2024/04/08 09:21:40;;;;;;;;;;;;;;;20.12;41.01;93648.56;5093528;28;19920;-71
2024/04/08 09:24:06;;;;;;;;;;;;;;;20.38;40.93;93646.81;5089662;28;20381;-71
2024/04/08 09:26:32;;;;;;;;;;;;;;;20.25;39.21;93639.47;5089646;28;19919;-71
2024/04/08 09:28:57;;;;;;;;;;;;;;;20.56;38.66;93636.88;5089415;28;19916;-71
2024/04/08 09:31:23;;;;;;;;;;;;;;;20.37;39.28;93644.44;5089208;28;20300;-71
2024/04/08 09:33:49;;;;;;;;;;;;;;;20.29;39.33;93637.91;5088926;28;19967;-71
2024/04/08 09:36:15;;;;;;;;;;;;;;;20.33;38.51;93638.97;5096617;28;19980;-71
2024/04/08 09:38:42;;;;;;;;;;;;;;;20.47;39.07;93634.00;5089196;28;20003;-71
2024/04/08 09:41:09;;;;;;;;;;;;;;;20.69;38.62;93633.72;5088950;28;20457;-71
2024/04/08 09:43:36;;;;;;;;;;;;;;;20.56;38.47;93631.66;5088836;28;19916;-71
2024/04/08 09:46:02;;;;;;;;;;;;;;;20.36;39.48;93628.00;5088775;28;19919;-71
2024/04/08 09:48:28;;;;;;;;;;;;;;;20.74;38.24;93617.28;5106255;28;19911;-71
2024/04/08 09:50:54;;;;;;;;;;;;;;;21.15;37.37;93626.13;5095810;28;20060;-71
2024/04/08 09:53:19;;;;;;;;;;;;;;;21.40;36.51;93629.69;5089228;28;19916;-71
2024/04/08 09:55:45;;;;;;;;;;;;;;;21.91;37.86;93613.03;5088901;28;19912;-71
2024/04/08 09:58:13;;;;;;;;;;;;;;;22.30;36.36;93616.69;5088902;28;19941;-71
2024/04/08 10:00:40;;;;;;;;;;;;;;;22.40;37.23;93614.00;5100604;28;20016;-71
2024/04/08 10:03:08;;;;;;;;;;;;;;;21.41;36.21;93607.72;5088337;28;19916;-71
2024/04/08 10:05:34;;;;;;;;;;;;;;;21.61;38.15;93604.25;5088799;28;19916;-72
2024/04/08 10:08:00;;;;;;;;;;;;;;;21.71;36.45;93600.84;5092578;28;19954;-71
2024/04/08 10:10:26;;;;;;;;;;;;;;;21.52;36.38;93604.03;5088550;28;19916;-71
2024/04/08 10:12:52;;;;;;;;;;;;;;;22.12;36.57;93591.97;5088951;28;19912;-71
2024/04/08 10:15:19;;;;;;;;;;;;;;;22.60;36.37;93591.34;5089745;28;19931;-72
2024/04/08 10:19:22;;;;;;;;;;;;;;;22.05;35.59;93588.84;5496834;25;20440;-71
2024/04/08 10:21:52;;;;;;;;;;;;;;;22.36;35.41;93586.03;5470141;26;19943;-71
2024/04/08 10:24:28;;;;;;;;;;;;;;;21.52;36.26;93583.13;5492856;26;19996;-71
2024/04/08 10:27:04;;;;;;;;;;;;;;;21.57;34.78;93582.31;5499158;26;20000;-72
2024/04/08 10:29:31;;;;;;;;;;;;;;;20.87;35.62;93578.66;5494131;26;20377;-71
2024/04/08 10:31:57;;;;;;;;;;;;;;;21.14;36.72;93572.28;5473203;26;19968;-71
2024/04/08 10:34:23;;;;;;;;;;;;;;;20.84;35.58;93585.16;5466138;26;20225;-71
2024/04/08 10:36:49;;;;;;;;;;;;;;;20.41;37.07;93559.41;5474088;26;20372;-71
2024/04/08 10:39:16;;;;;;;;;;;;;;;20.89;35.93;93556.47;5466000;26;19929;-71
2024/04/08 10:41:41;;;;;;;;;;;;;;;20.67;36.64;93560.13;5465937;26;20330;-71
2024/04/08 10:44:08;;;;;;;;;;;;;;;20.92;36.78;93553.31;5469823;26;19933;-71
2024/04/08 10:46:34;;;;;;;;;;;;;;;21.27;35.77;93550.03;5469491;26;19928;-71
2024/04/08 10:48:59;;;;;;;;;;;;;;;21.28;35.73;93551.63;5466008;26;20339;-71
2024/04/08 10:51:25;;;;;;;;;;;;;;;20.99;35.04;93547.03;5465926;26;20296;-71
2024/04/08 10:53:51;;;;;;;;;;;;;;;20.77;36.83;93535.84;5470914;26;19933;-71
2024/04/08 10:56:17;;;;;;;;;;;;;;;20.67;35.68;93543.69;5466139;26;19939;-71
2024/04/08 10:58:42;;;;;;;;;;;;;;;20.69;36.60;93541.59;5465748;26;20538;-73
2024/04/08 11:01:08;;;;;;;;;;;;;;;20.45;36.20;93531.72;5466606;26;19929;-73
2024/04/08 11:03:34;;;;;;;;;;;;;;;20.79;35.71;93528.50;5465764;26;19981;-71
2024/04/08 11:05:59;;;;;;;;;;;;;;;21.15;35.45;93527.63;5472046;26;20318;-71
2024/04/08 11:08:25;;;;;;;;;;;;;;;21.27;35.15;93527.31;5465426;26;20297;-71
2024/04/08 11:10:50;;;;;;;;;;;;;;;21.29;34.55;93519.22;5472815;26;20260;-71
2024/04/08 11:13:15;;;;;;;;;;;;;;;21.46;34.79;93519.66;5494966;26;19935;-72
2024/04/08 11:15:47;;;;;;;;;;;;;;;21.47;35.43;93520.41;5482903;26;19935;-71
2024/04/08 11:18:12;;;;;;;;;;;;;;;21.49;36.21;93516.47;5474100;26;19928;-71
2024/04/08 11:20:38;;;;;;;;;;;;;;;21.77;34.79;93526.56;5467919;26;19935;-71
2024/04/08 11:23:03;;;;;;;;;;;;;;;21.41;35.46;93511.84;5465345;26;19937;-71
2024/04/08 11:25:29;;;;;;;;;;;;;;;21.47;35.55;93509.97;5468737;26;19935;-71
2024/04/08 11:27:54;;;;;;;;;;;;;;;21.88;35.19;93509.75;5464885;26;19935;-71
2024/04/08 11:30:20;;;;;;;;;;;;;;;21.84;34.45;93510.56;5450537;26;19929;-71
2024/04/08 11:32:45;;;;;;;;;;;;;;;22.15;34.19;93505.06;5449760;26;20352;-71
2024/04/08 11:35:10;;;;;;;;;;;;;;;21.72;33.89;93500.44;5457580;26;19952;-71
2024/04/08 11:37:36;;;;;;;;;;;;;;;21.40;34.76;93499.84;5455346;26;19999;-71
2024/04/08 11:40:04;;;;;;;;;;;;;;;21.62;35.97;93502.03;5450130;26;19928;-71
2024/04/08 11:42:29;;;;;;;;;;;;;;;21.42;35.51;93491.72;5462055;26;19931;-71
2024/04/08 11:44:58;;;;;;;;;;;;;;;21.29;35.49;93482.66;5461719;26;20306;-71
2024/04/08 11:47:24;;;;;;;;;;;;;;;21.45;35.78;93488.56;5462739;26;19927;-73
2024/04/08 11:49:50;;;;;;;;;;;;;;;21.89;35.00;93477.28;5457673;26;20248;-72
2024/04/08 11:52:15;;;;;;;;;;;;;;;21.91;35.48;93471.00;5460814;26;19932;-72
2024/04/08 11:54:40;;;;;;;;;;;;;;;21.65;35.91;93473.81;5459687;26;20340;-72
2024/04/08 11:57:07;;;;;;;;;;;;;;;21.32;36.71;93469.03;5452878;26;19928;-72
2024/04/08 11:59:32;;;;;;;;;;;;;;;21.78;36.04;93462.75;5459089;26;19939;-72
2024/04/08 12:01:58;;;;;;;;;;;;;;;21.96;36.31;93469.16;5460741;26;20256;-72
2024/04/08 12:04:23;;;;;;;;;;;;;;;21.65;35.91;93464.13;5472562;26;19929;-72
2024/04/08 12:06:48;;;;;;;;;;;;;;;21.56;36.47;93463.16;5467607;26;19936;-72
2024/04/08 12:09:14;;;;;;;;;;;;;;;21.91;36.29;93466.56;5462280;26;19929;-72
2024/04/08 12:11:39;;;;;;;;;;;;;;;22.35;35.52;93457.00;5462383;26;19981;-72
2024/04/08 12:14:04;;;;;;;;;;;;;;;21.99;35.41;93459.97;5463922;26;19929;-72
2024/04/08 12:16:30;;;;;;;;;;;;;;;22.29;35.00;93456.28;5470194;26;19944;-72
2024/04/08 12:18:55;;;;;;;;;;;;;;;22.53;33.92;93454.75;5470973;26;19928;-72
2024/04/08 12:21:20;;;;;;;;;;;;;;;22.49;34.82;93445.88;5463188;26;19936;-72
2024/04/08 12:23:46;;;;;;;;;;;;;;;22.12;35.48;93450.72;5466431;26;19939;-72
2024/04/08 12:26:13;;;;;;;;;;;;;;;22.03;34.48;93445.25;5466723;26;20325;-72
2024/04/08 12:28:39;;;;;;;;;;;;;;;21.95;34.46;93438.81;5469005;26;19935;-72
2024/04/08 12:31:04;;;;;;;;;;;;;;;22.34;34.44;93444.97;5470761;26;19928;-72
2024/04/08 12:33:29;;;;;;;;;;;;;;;22.20;35.25;93434.41;5473284;26;19935;-72
2024/04/08 12:35:55;;;;;;;;;;;;;;;22.23;34.80;93436.47;5462845;26;19940;-72
2024/04/08 12:38:20;;;;;;;;;;;;;;;22.12;35.45;93438.38;5470739;26;19935;-72
2024/04/08 12:40:46;;;;;;;;;;;;;;;22.42;34.14;93439.16;5459741;26;19936;-72
2024/04/08 12:43:12;;;;;;;;;;;;;;;22.57;34.39;93429.59;5461888;26;19940;-72